Snaith, United Kingdom
Current Conditions -  °F | °C
As of 9:50 AM on Thursday 29 Jan 2015 (Local Time) from EGCN Reporting Station
Moderate Snow Moderate Snow  
Wind Chill: 25°   Ceiling: 200
Heat Index: 34°   Visibility: 0.93mi
Dew Point: 34°   Wind: 12mph
Humidity: 100%   Direction: 220°SW
Pressure: 28.97"   Gusts: NA
Location:  53.69°N, 1.03°W
Report Text: EGCN 290950Z 22010KT 1500 SN BKN002 01/01 Q0981 R99/290299
Loading
Personal Weather Stations






























Interactive Weather Map New forecast layout! Learn more

10-Day Weather Forecast

Advertisements
Track Severe Weather on mobile